Flight Track Log - Related Links

Times and Time Zones

All times are in EST time to prevent confusion due to time zone crossing. See the SKW5619 flight status page for this flight to view local times or setup timezone preferences in your user account.

Time Position Orientation Groundspeed Altitude Reporting Facility
EST Latitude Longitude Course Direction KTS MPH feet Rate Location/Type
Sat 09:35:01 PM 39.9500 -104.6833 10° North 224 258 8,200  Level Denver TRACON
Sat 09:36:01 PM 40.0333 -104.6667 North 280 322 10,000 2,047 Climbing Denver TRACON
Sat 09:37:10 PM 40.1219 -104.6733 357° North 293 337 12,600 2,215 Climbing Denver Center
Sat 09:38:00 PM 40.3178 -105.1060 346° North  Level Estimated
Sat 09:38:11 PM 40.2050 -104.6964 348° North 301 346 14,800  Level Denver Center
Sat 09:39:00 PM 40.4089 -105.1932 346° North  Level Estimated
Sat 09:39:12 PM 40.2944 -104.7203 348° North 327 376 16,100  Level Denver Center
Sat 09:40:00 PM 40.5108 -105.1687 10° North  Level FlightAware Approximate
Sat 09:40:13 PM 40.3750 -104.7411 349° North 348 400 17,500  Level Denver Center
Sat 09:41:15 PM 40.4969 -104.7733 349° North 361 415 20,000 1,854 Climbing Denver Center
Sat 09:42:16 PM 40.5964 -104.8008 348° North 368 423 21,300 1,377 Climbing Denver Center
Sat 09:43:17 PM 40.6994 -104.8275 349° North 375 432 22,800 1,230 Climbing Denver Center
Sat 09:44:18 PM 40.8069 -104.8603 347° North 367 422 23,800 934 Climbing Denver Center
Sat 09:45:19 PM 40.9089 -104.9086 340° North 382 440 24,700 934 Climbing Denver Center
Sat 09:46:20 PM 41.0169 -104.9625 339° North 393 452 25,700 1,220 Climbing Denver Center
Sat 09:47:22 PM 41.1189 -105.0131 340° North 404 465 27,200 1,122 Climbing Denver Center
Sat 09:48:23 PM 41.2186 -105.0628 339° North 402 463 28,000 885 Climbing Denver Center
Sat 09:49:24 PM 41.3361 -105.1219 339° North 403 464 29,000 984 Climbing Denver Center
Sat 09:50:25 PM 41.4364 -105.1694 340° North 402 463 30,000 885 Climbing Denver Center
Sat 09:51:26 PM 41.5364 -105.2208 339° North 402 463 30,800 787 Climbing Denver Center
Sat 09:52:27 PM 41.6289 -105.3258 320° Northwest 394 453 31,600 537 Climbing Denver Center
Sat 09:53:40 PM 41.7119 -105.4389 315° West 384 442 32,000 179 Climbing Denver Center
Sat 09:54:41 PM 41.7986 -105.5556 315° West 391 450 32,000  Level Denver Center
Sat 09:55:42 PM 41.8742 -105.6581 315° West 401 461 32,000  Level Denver Center
Sat 09:56:43 PM 41.9606 -105.7761 315° West 397 457 32,000  Level Denver Center
Sat 09:57:44 PM 42.0292 -105.8731 314° West 380 437 32,000  Level Denver Center
Sat 09:58:46 PM 42.0969 -105.9692 314° West 372 428 32,000  Level Denver Center
Sat 09:59:47 PM 42.1758 -106.0808 314° West 368 423 32,000  Level Denver Center
Sat 10:00:48 PM 42.2447 -106.1789 314° West 373 429 32,000  Level Denver Center
Sat 10:01:49 PM 42.3144 -106.2753 314° West 374 430 32,000  Level Denver Center
Sat 10:03:02 PM 42.3944 -106.3894 314° West 374 430 32,000  Level Denver Center
Sat 10:04:03 PM 42.4631 -106.4850 314° West 371 427 32,000  Level Denver Center
Sat 10:05:04 PM 42.5531 -106.6125 314° West 368 423 32,000  Level Denver Center
Sat 10:06:05 PM 42.6197 -106.7094 313° West 368 423 32,000  Level Denver Center
Sat 10:07:06 PM 42.6864 -106.8056 313° West 365 420 32,000  Level Denver Center
Sat 10:08:07 PM 42.7639 -106.9169 313° West 363 418 32,000  Level Denver Center
Sat 10:09:08 PM 42.8303 -107.0136 313° West 365 420 32,000  Level Denver Center
Sat 10:10:09 PM 42.9103 -107.1281 314° West 372 428 32,000  Level Denver Center
Sat 10:10:39 PM 42.9403 -107.1756 311° West 374 430 32,000  Level Salt Lake Center
Sat 10:11:40 PM 43.0128 -107.2806 313° West 379 436 32,000  Level Salt Lake Center
Sat 10:12:41 PM 43.0853 -107.3853 313° West 378 435 32,000  Level Salt Lake Center
Sat 10:13:42 PM 43.1567 -107.4917 313° West 380 437 32,000  Level Salt Lake Center
Sat 10:14:44 PM 43.2278 -107.5947 313° West 374 430 32,000  Level Salt Lake Center
Sat 10:15:45 PM 43.2978 -107.7003 312° West 373 429 32,000  Level Salt Lake Center
Sat 10:16:46 PM 43.3678 -107.8047 313° West 372 428 32,000  Level Salt Lake Center
Sat 10:17:47 PM 43.4372 -107.9089 313° West 371 427 32,000  Level Salt Lake Center
Sat 10:18:48 PM 43.5203 -108.0306 313° West 364 419 32,000  Level Salt Lake Center
Sat 10:19:49 PM 43.5931 -108.1281 316° Northwest 365 420 32,000  Level Salt Lake Center
Sat 10:20:50 PM 43.6636 -108.2236 316° Northwest 358 412 32,000  Level Salt Lake Center
Sat 10:21:52 PM 43.7344 -108.3217 315° West 360 414 32,000  Level Salt Lake Center
Sat 10:22:53 PM 43.8056 -108.4192 315° West 361 415 32,000  Level Salt Lake Center
Sat 10:23:54 PM 43.8756 -108.5172 315° West 357 411 32,000  Level Salt Lake Center
Sat 10:24:55 PM 43.9464 -108.6144 315° West 359 413 32,000  Level Salt Lake Center
Sat 10:25:56 PM 44.0169 -108.7117 315° West 358 412 32,000  Level Salt Lake Center
Sat 10:26:57 PM 44.0878 -108.8092 315° West 358 412 32,000  Level Salt Lake Center
Sat 10:27:58 PM 44.1578 -108.9058 315° West 356 410 32,000  Level Salt Lake Center
Sat 10:29:00 PM 44.2275 -109.0053 314° West 357 411 32,000  Level Salt Lake Center
Sat 10:30:01 PM 44.2986 -109.1050 315° West 362 417 32,000  Level Salt Lake Center
Sat 10:31:02 PM 44.3844 -109.2256 315° West 364 419 32,000  Level Salt Lake Center
Sat 10:32:03 PM 44.4567 -109.3272 315° West 367 422 32,000  Level Salt Lake Center
Sat 10:33:04 PM 44.5286 -109.4289 315° West 368 423 32,000  Level Salt Lake Center
Sat 10:34:06 PM 44.5978 -109.5297 314° West 361 415 32,000  Level Salt Lake Center
Sat 10:35:07 PM 44.6697 -109.6306 315° West 364 419 32,000  Level Salt Lake Center
Sat 10:36:08 PM 44.7394 -109.7325 314° West 362 417 32,000  Level Salt Lake Center
Sat 10:37:09 PM 44.8161 -109.8425 315° West 364 419 32,000  Level Salt Lake Center
Sat 10:38:10 PM 44.8833 -109.9411 314° West 365 420 32,000  Level Salt Lake Center
Sat 10:39:11 PM 44.9511 -110.0383 315° West 366 421 32,000  Level Salt Lake Center
Sat 10:40:12 PM 45.0294 -110.1531 314° West 365 420 32,000  Level Salt Lake Center
Sat 10:41:14 PM 45.0964 -110.2531 313° West 368 423 32,000  Level Salt Lake Center
Sat 10:42:15 PM 45.1767 -110.3694 314° West 366 421 32,000 -197 Level Salt Lake Center
Sat 10:43:16 PM 45.2472 -110.4714 315° West 364 419 31,600 -639 Descending Salt Lake Center
Sat 10:44:17 PM 45.3217 -110.5825 314° West 377 434 30,700 -836 Descending Salt Lake Center
Sat 10:45:18 PM 45.3953 -110.6922 314° West 377 434 29,900 -787 Descending Salt Lake Center
Sat 10:46:19 PM 45.4650 -110.7953 314° West 356 410 29,100 -787 Descending Salt Lake Center
Sat 10:47:20 PM 45.5314 -110.8947 314° West 341 392 28,300 -976 Descending Salt Lake Center
Sat 10:48:22 PM 45.5956 -110.9928 313° West 334 384 27,100 -1,463 Descending Salt Lake Center
Sat 10:49:23 PM 45.6633 -111.0953 313° West 346 398 25,300 -1,820 Descending Salt Lake Center
Sat 10:50:24 PM 45.7231 -111.1847 314° West 331 381 23,400 -2,115 Descending Salt Lake Center
Sat 10:51:25 PM 45.7844 -111.2803 313° West 316 364 21,000 -2,459 Descending Salt Lake Center
Sat 10:52:26 PM 45.8458 -111.3750 313° West 317 365 18,400 -2,705 Descending Salt Lake Center
Sat 10:53:27 PM 45.9064 -111.4694 313° West 315 362 15,500 -2,115 Descending Salt Lake Center
Sat 10:54:28 PM 45.9664 -111.5617 313° West 311 358 14,100 -738 Descending Salt Lake Center
Sat 10:55:29 PM 46.0311 -111.6272 325° Northwest 291 335 14,000  Descending Salt Lake Center
Sat 10:56:30 PM 46.1108 -111.5994 14° North 291 335 14,100 -49 Climbing Salt Lake Center
Sat 10:57:31 PM 46.1933 -111.5683 15° North 299 344 13,900 -49 Descending Salt Lake Center
Sat 10:58:32 PM 46.2722 -111.5369 15° North 292 336 14,000 49 Climbing Salt Lake Center
Sat 10:59:33 PM 46.3531 -111.5058 15° North 294 338 14,000  Level Salt Lake Center
Sat 11:01:00 PM 46.4403 -111.6689 North  Level Estimated
Sat 11:08:00 PM 46.6000 -111.9667 North  Level FlightAware Approximate
Sat 11:09:00 PM 46.6068 -111.9827 North  Level Estimated
Sat 11:10:00 PM 46.6068 -111.9827 North  Level Estimated

Login

Don't have an account? Register now (free) for customized features, flight alerts, and more!